createdAt,value
2018-09-21T00:00:02.883Z,20.58
2018-09-21T00:00:40.829Z,20.62
2018-09-21T00:01:16.054Z,20.74
2018-09-21T00:01:51.281Z,20.71
2018-09-21T00:02:26.031Z,20.69
2018-09-21T00:03:01.227Z,20.68
2018-09-21T00:03:36.564Z,20.66
2018-09-21T00:04:12.918Z,20.68
2018-09-21T00:04:48.107Z,20.64
2018-09-21T00:05:23.324Z,20.80
2018-09-21T00:05:58.497Z,20.73
2018-09-21T00:06:33.702Z,20.69
2018-09-21T00:07:08.890Z,20.69
2018-09-21T00:07:44.097Z,20.66
2018-09-21T00:08:19.312Z,20.63
2018-09-21T00:08:54.879Z,20.60
2018-09-21T00:09:30.054Z,20.58
2018-09-21T00:10:06.059Z,20.55
2018-09-21T00:10:41.226Z,20.59
2018-09-21T00:11:16.449Z,20.57
2018-09-21T00:11:51.690Z,20.55
2018-09-21T00:12:26.389Z,20.50
2018-09-21T00:13:01.610Z,20.52
2018-09-21T00:13:38.105Z,20.51
2018-09-21T00:14:13.274Z,20.53
2018-09-21T00:14:48.504Z,20.57
2018-09-21T00:15:23.729Z,20.55
2018-09-21T00:15:58.903Z,20.53
2018-09-21T00:16:34.055Z,20.50
2018-09-21T00:17:09.217Z,20.49
2018-09-21T00:17:44.398Z,20.54
2018-09-21T00:18:19.656Z,20.66
2018-09-21T00:18:54.877Z,20.73
2018-09-21T00:19:30.019Z,20.67
2018-09-21T00:20:05.244Z,20.59
2018-09-21T00:20:40.401Z,20.57
2018-09-21T00:21:15.774Z,20.59
2018-09-21T00:21:50.851Z,20.49
2018-09-21T00:22:26.258Z,20.51
2018-09-21T00:23:01.414Z,20.54
2018-09-21T00:23:36.637Z,20.50
2018-09-21T00:24:11.816Z,20.56
2018-09-21T00:24:47.048Z,20.54
2018-09-21T00:25:22.304Z,20.58
2018-09-21T00:25:57.495Z,20.56
2018-09-21T00:26:32.682Z,20.69
2018-09-21T00:27:07.374Z,20.71
2018-09-21T00:27:42.539Z,20.64
2018-09-21T00:28:17.770Z,20.62
2018-09-21T00:28:53.023Z,20.58
2018-09-21T00:29:28.208Z,20.52
2018-09-21T00:30:03.959Z,20.56
2018-09-21T00:30:39.138Z,20.60
2018-09-21T00:31:14.344Z,20.57
2018-09-21T00:31:49.577Z,20.52
2018-09-21T00:32:24.797Z,20.45
2018-09-21T00:32:59.514Z,20.48
2018-09-21T00:33:35.038Z,20.51
2018-09-21T00:34:10.280Z,20.52
2018-09-21T00:34:45.467Z,20.47
2018-09-21T00:35:20.678Z,20.47
2018-09-21T00:35:55.874Z,20.47
2018-09-21T00:36:31.066Z,20.51
2018-09-21T00:37:06.487Z,20.46
2018-09-21T00:37:42.534Z,20.40
2018-09-21T00:38:17.899Z,20.42
2018-09-21T00:38:53.158Z,20.50
2018-09-21T00:39:28.324Z,20.44
2018-09-21T00:40:03.532Z,20.40
2018-09-21T00:40:38.720Z,20.38
2018-09-21T00:41:13.861Z,20.42
2018-09-21T00:41:49.105Z,20.51
2018-09-21T00:42:24.286Z,20.44
2018-09-21T00:42:59.474Z,20.51
2018-09-21T00:43:34.670Z,20.45
2018-09-21T00:44:09.855Z,20.42
2018-09-21T00:44:45.045Z,20.41
2018-09-21T00:45:20.261Z,20.34
2018-09-21T00:45:55.406Z,20.32
2018-09-21T00:46:30.589Z,20.31
2018-09-21T00:47:06.659Z,20.28
2018-09-21T00:47:41.819Z,20.26
2018-09-21T00:48:16.996Z,20.34
2018-09-21T00:48:52.232Z,20.30
2018-09-21T00:49:27.654Z,20.32
2018-09-21T00:50:02.839Z,20.30
2018-09-21T00:50:38.246Z,20.30
2018-09-21T00:51:13.647Z,20.38
2018-09-21T00:51:48.864Z,20.40
2018-09-21T00:52:24.515Z,20.33
2018-09-21T00:52:59.686Z,20.38
2018-09-21T00:53:34.883Z,20.31
2018-09-21T00:54:10.088Z,20.31
2018-09-21T00:54:45.313Z,20.29
2018-09-21T00:55:20.533Z,20.25
2018-09-21T00:55:55.836Z,20.19
2018-09-21T00:56:30.999Z,20.36
2018-09-21T00:57:05.667Z,20.37
2018-09-21T00:57:40.955Z,20.32
2018-09-21T00:58:16.231Z,20.34
2018-09-21T00:58:51.425Z,20.42
2018-09-21T00:59:26.631Z,20.40
2018-09-21T01:00:01.799Z,20.41
2018-09-21T01:00:36.990Z,20.42
2018-09-21T01:01:12.221Z,20.43
2018-09-21T01:01:47.408Z,20.42
2018-09-21T01:02:22.626Z,20.44
2018-09-21T01:02:57.832Z,20.38
2018-09-21T01:03:33.022Z,20.42
2018-09-21T01:04:08.219Z,20.44
2018-09-21T01:04:44.466Z,20.34
2018-09-21T01:05:19.744Z,20.42
2018-09-21T01:05:54.997Z,20.43
2018-09-21T01:06:30.182Z,20.36
2018-09-21T01:07:05.742Z,20.36
2018-09-21T01:07:40.932Z,20.28
2018-09-21T01:08:16.394Z,20.20
2018-09-21T01:08:51.766Z,20.20
2018-09-21T01:09:27.035Z,20.28
2018-09-21T01:10:02.219Z,20.25
2018-09-21T01:10:37.429Z,20.33
2018-09-21T01:11:13.111Z,20.35
2018-09-21T01:11:48.443Z,20.32
2018-09-21T01:12:23.841Z,20.46
2018-09-21T01:12:59.230Z,20.37
2018-09-21T01:13:34.439Z,20.30
2018-09-21T01:14:09.707Z,20.40
2018-09-21T01:14:44.909Z,20.44
2018-09-21T01:15:20.886Z,20.42
2018-09-21T01:15:56.192Z,20.42
2018-09-21T01:16:31.374Z,20.51
2018-09-21T01:17:07.241Z,20.36
2018-09-21T01:17:42.740Z,20.40
2018-09-21T01:18:18.093Z,20.26
2018-09-21T01:18:53.358Z,20.28
2018-09-21T01:19:28.722Z,20.29
2018-09-21T01:20:04.280Z,20.30
2018-09-21T01:20:39.481Z,20.34
2018-09-21T01:21:14.704Z,20.33
2018-09-21T01:21:49.471Z,20.30
2018-09-21T01:22:24.964Z,20.31
2018-09-21T01:23:00.182Z,20.23
2018-09-21T01:23:35.355Z,20.18
2018-09-21T01:24:10.563Z,20.16
2018-09-21T01:24:46.242Z,20.12
2018-09-21T01:25:21.939Z,20.19
2018-09-21T01:25:57.184Z,20.25
2018-09-21T01:26:32.407Z,20.32
2018-09-21T01:27:07.666Z,20.25
2018-09-21T01:27:43.225Z,20.21
2018-09-21T01:28:18.516Z,20.14
2018-09-21T01:28:54.317Z,20.12
2018-09-21T01:29:29.595Z,20.13
2018-09-21T01:30:05.377Z,20.07
2018-09-21T01:30:40.644Z,20.08
2018-09-21T01:31:15.883Z,20.03
2018-09-21T01:31:51.197Z,20.02
2018-09-21T01:32:26.491Z,20.08
2018-09-21T01:33:01.724Z,19.97
2018-09-21T01:33:36.897Z,19.96
2018-09-21T01:34:12.118Z,19.98
2018-09-21T01:34:47.319Z,19.89
2018-09-21T01:35:22.674Z,19.96
2018-09-21T01:35:57.916Z,19.92
2018-09-21T01:36:33.127Z,20.04
2018-09-21T01:37:08.794Z,20.09
2018-09-21T01:37:43.951Z,20.08
2018-09-21T01:38:19.289Z,20.06
2018-09-21T01:38:54.973Z,20.05
2018-09-21T01:39:30.198Z,19.98
2018-09-21T01:40:05.394Z,19.97
2018-09-21T01:40:40.578Z,19.97
2018-09-21T01:41:15.882Z,19.96
2018-09-21T01:41:51.152Z,20.02
2018-09-21T01:42:26.461Z,20.03
2018-09-21T01:43:01.654Z,20.12
2018-09-21T01:43:36.844Z,20.11
2018-09-21T01:44:12.030Z,20.01
2018-09-21T01:44:47.286Z,19.96
2018-09-21T01:45:22.652Z,19.95
2018-09-21T01:45:57.962Z,19.96
2018-09-21T01:46:33.344Z,19.93
2018-09-21T01:47:08.570Z,19.93
2018-09-21T01:47:43.761Z,19.92
2018-09-21T01:48:19.027Z,19.95
2018-09-21T01:48:54.478Z,19.92
2018-09-21T01:49:29.996Z,19.94
2018-09-21T01:50:05.664Z,19.95
2018-09-21T01:50:40.850Z,19.96
2018-09-21T01:51:17.073Z,19.97
2018-09-21T01:51:52.346Z,19.93
2018-09-21T01:52:27.154Z,20.10
2018-09-21T01:53:02.430Z,20.08
2018-09-21T01:53:37.600Z,20.11
2018-09-21T01:54:12.790Z,20.16
2018-09-21T01:54:48.116Z,20.18
2018-09-21T01:55:23.576Z,20.15
2018-09-21T01:55:59.024Z,20.18
2018-09-21T01:56:34.185Z,20.20
2018-09-21T01:57:09.497Z,20.25
2018-09-21T01:57:44.720Z,20.18
2018-09-21T01:58:20.204Z,20.14
2018-09-21T01:58:55.465Z,20.13
2018-09-21T01:59:30.613Z,20.21
2018-09-21T02:00:05.939Z,20.15
2018-09-21T02:00:41.103Z,20.11
2018-09-21T02:01:16.363Z,20.11
2018-09-21T02:01:51.604Z,20.11
2018-09-21T02:02:26.912Z,20.13
2018-09-21T02:03:02.109Z,20.14
2018-09-21T02:03:36.786Z,20.28
2018-09-21T02:04:12.082Z,20.22
2018-09-21T02:04:47.283Z,20.16
2018-09-21T02:05:22.485Z,20.16
2018-09-21T02:05:57.797Z,20.21
2018-09-21T02:06:32.999Z,20.22
2018-09-21T02:07:10.182Z,20.17
2018-09-21T02:07:45.358Z,20.18
2018-09-21T02:08:20.789Z,20.21
2018-09-21T02:08:56.181Z,20.24
2018-09-21T02:09:31.420Z,20.18
2018-09-21T02:10:06.894Z,20.19
2018-09-21T02:10:42.054Z,20.17
2018-09-21T02:11:17.309Z,20.21
2018-09-21T02:11:52.730Z,20.23
2018-09-21T02:12:28.035Z,20.23
2018-09-21T02:13:03.236Z,20.20
2018-09-21T02:13:38.512Z,20.21
2018-09-21T02:14:13.688Z,20.15
2018-09-21T02:14:48.954Z,20.23
2018-09-21T02:15:24.297Z,20.23
2018-09-21T02:15:59.681Z,20.15
2018-09-21T02:16:34.857Z,20.10
2018-09-21T02:17:10.372Z,20.08
2018-09-21T02:17:45.704Z,20.07
2018-09-21T02:18:21.345Z,20.11
2018-09-21T02:18:56.942Z,20.09
2018-09-21T02:19:32.309Z,20.12
2018-09-21T02:20:07.565Z,20.25
2018-09-21T02:20:42.753Z,20.15
2018-09-21T02:21:18.556Z,20.09
2018-09-21T02:21:53.719Z,20.16
2018-09-21T02:22:29.222Z,20.16
2018-09-21T02:23:04.426Z,20.10
2018-09-21T02:23:39.707Z,20.15
2018-09-21T02:24:14.891Z,20.10
2018-09-21T02:24:50.234Z,20.08
2018-09-21T02:25:25.591Z,20.14
2018-09-21T02:26:00.788Z,20.06
2018-09-21T02:26:36.012Z,20.11
2018-09-21T02:27:11.208Z,20.08
2018-09-21T02:27:45.940Z,20.03
2018-09-21T02:28:21.348Z,20.00
2018-09-21T02:28:56.612Z,20.01
2018-09-21T02:29:31.828Z,20.05
2018-09-21T02:30:07.073Z,20.00
2018-09-21T02:30:42.235Z,19.99
2018-09-21T02:31:17.474Z,20.05
2018-09-21T02:31:52.726Z,20.05
2018-09-21T02:32:28.113Z,19.98
2018-09-21T02:33:03.304Z,20.07
2018-09-21T02:33:38.463Z,20.08
2018-09-21T02:34:13.661Z,20.08
2018-09-21T02:34:49.138Z,20.06
2018-09-21T02:35:24.468Z,20.03
2018-09-21T02:35:59.706Z,20.03
2018-09-21T02:36:34.907Z,20.02
2018-09-21T02:37:10.128Z,20.01
2018-09-21T02:37:45.352Z,19.96
2018-09-21T02:38:20.780Z,19.95
2018-09-21T02:38:56.219Z,19.90
2018-09-21T02:39:31.454Z,19.92
2018-09-21T02:40:07.748Z,19.91
2018-09-21T02:40:42.976Z,19.98
2018-09-21T02:41:18.260Z,19.97
2018-09-21T02:41:53.882Z,20.04
2018-09-21T02:42:29.144Z,20.05
2018-09-21T02:43:04.299Z,20.19
2018-09-21T02:43:39.441Z,20.18
2018-09-21T02:44:14.642Z,20.14
2018-09-21T02:44:49.989Z,20.15
2018-09-21T02:45:25.456Z,20.11
2018-09-21T02:46:00.670Z,20.16
2018-09-21T02:46:36.260Z,20.13
2018-09-21T02:47:11.464Z,20.09
2018-09-21T02:47:46.683Z,20.06
2018-09-21T02:48:22.005Z,20.08
2018-09-21T02:48:57.612Z,20.08
2018-09-21T02:49:32.818Z,20.07
2018-09-21T02:50:08.035Z,20.10
2018-09-21T02:50:43.305Z,20.09
2018-09-21T02:51:18.763Z,20.18
2018-09-21T02:51:54.232Z,20.18
2018-09-21T02:52:29.852Z,20.28
2018-09-21T02:53:05.046Z,20.20
2018-09-21T02:53:40.252Z,20.14
2018-09-21T02:54:15.471Z,20.12
2018-09-21T02:54:51.075Z,20.12
2018-09-21T02:55:26.470Z,20.16
2018-09-21T02:56:01.656Z,20.18
2018-09-21T02:56:37.334Z,20.14
2018-09-21T02:57:12.507Z,20.18
2018-09-21T02:57:47.788Z,20.28
2018-09-21T02:58:23.025Z,20.39
2018-09-21T02:58:58.609Z,20.34
2018-09-21T02:59:33.800Z,20.36
2018-09-21T03:00:10.040Z,20.39
2018-09-21T03:00:45.629Z,20.54
2018-09-21T03:01:20.936Z,20.45
2018-09-21T03:01:56.158Z,20.60
2018-09-21T03:02:31.365Z,20.59
2018-09-21T03:03:06.196Z,20.56
2018-09-21T03:03:41.363Z,20.58
2018-09-21T03:04:16.634Z,20.58
2018-09-21T03:04:53.502Z,20.57
2018-09-21T03:05:28.701Z,20.67
2018-09-21T03:06:04.310Z,20.65
2018-09-21T03:06:39.663Z,20.65
2018-09-21T03:07:15.007Z,20.81
2018-09-21T03:07:50.239Z,20.79
2018-09-21T03:08:25.510Z,20.78
2018-09-21T03:09:00.682Z,20.79
2018-09-21T03:09:35.869Z,20.77
2018-09-21T03:10:11.063Z,20.78
2018-09-21T03:10:46.276Z,20.87
2018-09-21T03:11:21.520Z,20.86
2018-09-21T03:11:56.710Z,20.93
2018-09-21T03:12:31.898Z,20.95
2018-09-21T03:13:07.444Z,20.88
2018-09-21T03:13:42.842Z,20.88
2018-09-21T03:14:18.271Z,20.87
2018-09-21T03:14:53.655Z,20.96
2018-09-21T03:15:29.387Z,20.98
2018-09-21T03:16:04.600Z,20.97
2018-09-21T03:16:39.755Z,20.94
2018-09-21T03:17:15.485Z,20.92
2018-09-21T03:17:50.742Z,20.96
2018-09-21T03:18:26.220Z,20.99
2018-09-21T03:19:01.490Z,20.99
2018-09-21T03:19:36.664Z,20.98
2018-09-21T03:20:11.848Z,20.98
2018-09-21T03:20:47.610Z,20.96
2018-09-21T03:21:23.388Z,21.00
2018-09-21T03:21:58.623Z,21.05
2018-09-21T03:22:33.846Z,21.06
2018-09-21T03:23:09.021Z,21.02
2018-09-21T03:23:44.211Z,21.02
2018-09-21T03:24:19.511Z,21.04
2018-09-21T03:24:54.779Z,21.01
2018-09-21T03:25:30.033Z,21.02
2018-09-21T03:26:05.399Z,21.09
2018-09-21T03:26:40.616Z,21.03
2018-09-21T03:27:15.478Z,21.01
2018-09-21T03:27:50.811Z,21.07
2018-09-21T03:28:26.106Z,21.08
2018-09-21T03:29:01.371Z,21.03
2018-09-21T03:29:36.554Z,21.07
2018-09-21T03:30:12.032Z,21.06
2018-09-21T03:30:47.266Z,21.08
2018-09-21T03:31:23.097Z,21.05
2018-09-21T03:31:57.897Z,21.08
2018-09-21T03:32:33.089Z,21.04
2018-09-21T03:33:08.532Z,21.07
2018-09-21T03:33:43.717Z,21.09
2018-09-21T03:34:18.946Z,21.05
2018-09-21T03:34:54.231Z,21.08
2018-09-21T03:35:29.526Z,21.06
2018-09-21T03:36:04.234Z,21.08
2018-09-21T03:36:39.499Z,21.08
2018-09-21T03:37:14.691Z,21.13
2018-09-21T03:37:50.021Z,21.18
2018-09-21T03:38:25.688Z,21.20
2018-09-21T03:39:01.251Z,21.13
2018-09-21T03:39:36.465Z,21.11
2018-09-21T03:40:11.797Z,21.05
2018-09-21T03:40:46.987Z,21.10
2018-09-21T03:41:22.379Z,21.05
2018-09-21T03:41:57.634Z,21.10
2018-09-21T03:42:32.914Z,21.09
2018-09-21T03:43:08.978Z,21.09
2018-09-21T03:43:44.201Z,21.07
2018-09-21T03:44:19.813Z,21.10
2018-09-21T03:44:55.108Z,21.06
2018-09-21T03:45:30.480Z,21.11
2018-09-21T03:46:05.851Z,21.15
2018-09-21T03:46:41.070Z,21.09
2018-09-21T03:47:16.266Z,21.07
2018-09-21T03:47:51.503Z,21.07
2018-09-21T03:48:27.045Z,21.08
2018-09-21T03:49:02.234Z,21.05
2018-09-21T03:49:37.430Z,21.03
2018-09-21T03:50:12.750Z,20.99
2018-09-21T03:50:48.032Z,21.02
2018-09-21T03:51:23.438Z,21.05
2018-09-21T03:51:59.096Z,21.03
2018-09-21T03:52:34.289Z,21.02
2018-09-21T03:53:09.487Z,21.01
2018-09-21T03:53:44.777Z,21.04
2018-09-21T03:54:20.024Z,21.04
2018-09-21T03:54:55.566Z,21.09
2018-09-21T03:55:30.786Z,21.11
2018-09-21T03:56:05.929Z,21.08
2018-09-21T03:56:41.102Z,21.06
2018-09-21T03:57:16.343Z,21.03
2018-09-21T03:57:51.679Z,21.07
2018-09-21T03:58:26.983Z,21.05
2018-09-21T03:59:02.180Z,21.02
2018-09-21T03:59:37.370Z,20.98
2018-09-21T04:00:12.543Z,21.03
2018-09-21T04:00:47.797Z,21.04
2018-09-21T04:01:23.068Z,21.06
2018-09-21T04:01:58.329Z,21.06
2018-09-21T04:02:33.476Z,21.02
2018-09-21T04:03:08.661Z,20.99
2018-09-21T04:03:43.840Z,20.93
2018-09-21T04:04:19.272Z,20.99
2018-09-21T04:04:54.668Z,21.03
2018-09-21T04:05:29.904Z,21.02
2018-09-21T04:06:05.486Z,21.02
2018-09-21T04:06:40.783Z,21.03
2018-09-21T04:07:16.004Z,21.09
2018-09-21T04:07:51.488Z,21.07
2018-09-21T04:08:26.981Z,21.01
2018-09-21T04:09:02.222Z,20.95
2018-09-21T04:09:37.403Z,20.97
2018-09-21T04:10:12.612Z,21.04
2018-09-21T04:10:47.852Z,21.09
2018-09-21T04:11:23.123Z,21.09
2018-09-21T04:11:58.413Z,21.06
2018-09-21T04:12:33.594Z,21.11
2018-09-21T04:13:08.762Z,21.02
2018-09-21T04:13:43.927Z,21.05
2018-09-21T04:14:19.750Z,21.07
2018-09-21T04:14:55.108Z,21.10
2018-09-21T04:15:30.439Z,21.09
2018-09-21T04:16:05.991Z,21.11
2018-09-21T04:16:41.325Z,21.11
2018-09-21T04:17:16.499Z,21.17
2018-09-21T04:17:51.714Z,21.14
2018-09-21T04:18:27.120Z,21.11
2018-09-21T04:19:02.291Z,21.06
2018-09-21T04:19:37.687Z,21.08
2018-09-21T04:20:13.020Z,21.09
2018-09-21T04:20:48.742Z,21.09
2018-09-21T04:21:24.076Z,21.16
2018-09-21T04:21:59.313Z,21.16
2018-09-21T04:22:34.663Z,21.11
2018-09-21T04:23:09.900Z,21.16
2018-09-21T04:23:45.210Z,21.14
2018-09-21T04:24:20.594Z,21.09
2018-09-21T04:24:55.916Z,21.06
2018-09-21T04:25:31.799Z,21.07
2018-09-21T04:26:07.420Z,21.11
2018-09-21T04:26:42.143Z,21.12
2018-09-21T04:27:16.864Z,21.22
2018-09-21T04:27:52.404Z,21.23
2018-09-21T04:28:27.794Z,21.19
2018-09-21T04:29:03.378Z,21.21
2018-09-21T04:29:38.543Z,21.22
2018-09-21T04:30:13.694Z,21.18
2018-09-21T04:30:48.931Z,21.20
2018-09-21T04:31:24.255Z,21.19
2018-09-21T04:31:59.511Z,21.25
2018-09-21T04:32:34.759Z,21.19
2018-09-21T04:33:10.299Z,21.13
2018-09-21T04:33:45.805Z,21.14
2018-09-21T04:34:21.242Z,21.19
2018-09-21T04:34:56.842Z,21.20
2018-09-21T04:35:32.061Z,21.19
2018-09-21T04:36:07.734Z,21.20
2018-09-21T04:36:43.099Z,21.25
2018-09-21T04:37:18.493Z,21.30
2018-09-21T04:37:53.883Z,21.28
2018-09-21T04:38:29.118Z,21.28
2018-09-21T04:39:06.559Z,21.31
2018-09-21T04:39:41.784Z,21.36
2018-09-21T04:40:17.692Z,21.30
2018-09-21T04:40:52.982Z,21.33
2018-09-21T04:41:28.324Z,21.34
2018-09-21T04:42:03.506Z,21.33
2018-09-21T04:42:38.696Z,21.32
2018-09-21T04:43:13.877Z,21.29
2018-09-21T04:43:49.628Z,21.23
2018-09-21T04:44:24.934Z,21.25
2018-09-21T04:45:00.132Z,21.24
2018-09-21T04:45:35.324Z,21.22
2018-09-21T04:46:10.519Z,21.33
2018-09-21T04:46:45.760Z,21.26
2018-09-21T04:47:20.981Z,21.22
2018-09-21T04:47:56.243Z,21.27
2018-09-21T04:48:31.485Z,21.31
2018-09-21T04:49:07.011Z,21.34
2018-09-21T04:49:42.794Z,21.38
2018-09-21T04:50:18.160Z,21.30
2018-09-21T04:50:53.566Z,21.28
2018-09-21T04:51:28.777Z,21.36
2018-09-21T04:52:03.978Z,21.30
2018-09-21T04:52:39.702Z,21.34
2018-09-21T04:53:14.906Z,21.34
2018-09-21T04:53:50.165Z,21.34
2018-09-21T04:54:25.499Z,21.38
2018-09-21T04:55:00.694Z,21.38
2018-09-21T04:55:35.858Z,21.34
2018-09-21T04:56:11.028Z,21.32
2018-09-21T04:56:46.257Z,21.33
2018-09-21T04:57:21.768Z,21.34
2018-09-21T04:57:57.071Z,21.40
2018-09-21T04:58:32.248Z,21.41
2018-09-21T04:59:07.505Z,21.39
2018-09-21T04:59:42.658Z,21.43
2018-09-21T05:00:17.973Z,21.36
2018-09-21T05:00:53.184Z,21.36
2018-09-21T05:01:28.394Z,21.35
2018-09-21T05:02:03.604Z,21.33
2018-09-21T05:02:38.770Z,21.36
2018-09-21T05:03:13.954Z,21.43
2018-09-21T05:03:49.395Z,21.45
2018-09-21T05:04:24.708Z,21.44
2018-09-21T05:04:59.999Z,21.53
2018-09-21T05:05:35.231Z,21.50
2018-09-21T05:06:10.446Z,21.48
2018-09-21T05:06:45.704Z,21.46
2018-09-21T05:07:20.958Z,21.48
2018-09-21T05:07:56.271Z,21.50
2018-09-21T05:08:31.494Z,21.51
2018-09-21T05:09:09.067Z,21.44
2018-09-21T05:09:44.288Z,21.48
2018-09-21T05:10:19.738Z,21.49
2018-09-21T05:10:54.971Z,21.48
2018-09-21T05:11:30.243Z,21.46
2018-09-21T05:12:05.450Z,21.44
2018-09-21T05:12:40.828Z,21.46
2018-09-21T05:13:16.030Z,21.53
2018-09-21T05:13:51.334Z,21.51
2018-09-21T05:14:26.790Z,21.56
2018-09-21T05:15:02.064Z,21.50
2018-09-21T05:15:37.231Z,21.53
2018-09-21T05:16:12.434Z,21.55
2018-09-21T05:16:47.696Z,21.54
2018-09-21T05:17:23.199Z,21.57
2018-09-21T05:17:58.476Z,21.58
2018-09-21T05:18:33.642Z,21.58
2018-09-21T05:19:08.842Z,21.61
2018-09-21T05:19:44.045Z,21.64
2018-09-21T05:20:19.928Z,21.64
2018-09-21T05:20:55.142Z,21.58
2018-09-21T05:21:30.460Z,21.64
2018-09-21T05:22:06.288Z,21.69
2018-09-21T05:22:41.510Z,21.65
2018-09-21T05:23:17.187Z,21.61
2018-09-21T05:23:52.444Z,21.58
2018-09-21T05:24:27.756Z,21.57
2018-09-21T05:25:02.952Z,21.56
2018-09-21T05:25:38.150Z,21.61
2018-09-21T05:26:13.395Z,21.63
2018-09-21T05:26:48.959Z,21.63
2018-09-21T05:27:24.759Z,21.57
2018-09-21T05:28:00.218Z,21.58
2018-09-21T05:28:35.426Z,21.59
2018-09-21T05:29:10.654Z,21.62
2018-09-21T05:29:46.030Z,21.62
2018-09-21T05:30:21.315Z,21.63
2018-09-21T05:30:56.632Z,21.65
2018-09-21T05:31:31.832Z,21.61
2018-09-21T05:32:07.646Z,21.61
2018-09-21T05:32:42.868Z,21.58
2018-09-21T05:33:18.291Z,21.57
2018-09-21T05:33:53.651Z,21.62
2018-09-21T05:34:29.197Z,21.63
2018-09-21T05:35:04.759Z,21.62
2018-09-21T05:35:40.076Z,21.63
2018-09-21T05:36:15.462Z,21.64
2018-09-21T05:36:51.061Z,21.66
2018-09-21T05:37:26.383Z,21.64
2018-09-21T05:38:01.609Z,21.65
2018-09-21T05:38:36.850Z,21.57
2018-09-21T05:39:13.886Z,21.58
2018-09-21T05:39:49.151Z,21.56
2018-09-21T05:40:24.558Z,21.60
2018-09-21T05:40:59.844Z,21.59
2018-09-21T05:41:35.086Z,21.59
2018-09-21T05:42:10.295Z,21.61
2018-09-21T05:42:45.733Z,21.59
2018-09-21T05:43:20.958Z,21.66
2018-09-21T05:43:56.309Z,21.67
2018-09-21T05:44:31.513Z,21.72
2018-09-21T05:45:07.148Z,21.69
2018-09-21T05:45:42.370Z,21.67
2018-09-21T05:46:17.676Z,21.71
2018-09-21T05:46:53.136Z,21.75
2018-09-21T05:47:28.341Z,21.72
2018-09-21T05:48:03.644Z,21.71
2018-09-21T05:48:39.038Z,21.75
2018-09-21T05:49:14.255Z,21.71
2018-09-21T05:49:50.152Z,21.75
2018-09-21T05:50:25.392Z,21.75
2018-09-21T05:51:00.700Z,21.75
2018-09-21T05:51:35.920Z,21.77
2018-09-21T05:52:11.638Z,21.72
2018-09-21T05:52:46.999Z,21.75
2018-09-21T05:53:22.567Z,21.76
2018-09-21T05:53:58.136Z,21.78
2018-09-21T05:54:33.328Z,21.85
2018-09-21T05:55:09.462Z,21.89
2018-09-21T05:55:44.701Z,21.86
2018-09-21T05:56:20.044Z,21.85
2018-09-21T05:56:55.475Z,21.92
2018-09-21T05:57:30.655Z,21.88
2018-09-21T05:58:06.628Z,21.91
2018-09-21T05:58:41.787Z,21.92
2018-09-21T05:59:17.462Z,21.94
2018-09-21T05:59:52.993Z,21.96
2018-09-21T06:00:28.318Z,21.98
2018-09-21T06:01:03.502Z,22.00
2018-09-21T06:01:38.721Z,22.06
2018-09-21T06:02:14.450Z,22.06
2018-09-21T06:02:50.288Z,22.09
2018-09-21T06:03:25.810Z,22.12
2018-09-21T06:04:01.030Z,22.09
2018-09-21T06:04:36.219Z,22.07
2018-09-21T06:05:11.839Z,22.14
2018-09-21T06:05:47.088Z,22.14
2018-09-21T06:06:22.706Z,22.18
2018-09-21T06:06:57.924Z,22.17
2018-09-21T06:07:33.648Z,22.15
2018-09-21T06:08:08.936Z,22.17
2018-09-21T06:08:44.239Z,22.19
2018-09-21T06:09:19.678Z,22.22
2018-09-21T06:09:55.259Z,22.26
2018-09-21T06:10:30.434Z,22.25
2018-09-21T06:11:05.867Z,22.34
2018-09-21T06:11:41.496Z,22.34
2018-09-21T06:12:16.759Z,22.33
2018-09-21T06:12:52.278Z,22.37
2018-09-21T06:13:27.519Z,22.40
2018-09-21T06:14:03.086Z,22.41
2018-09-21T06:14:38.418Z,22.53
2018-09-21T06:15:13.655Z,22.48
2018-09-21T06:15:48.983Z,22.56
2018-09-21T06:16:24.460Z,22.55
2018-09-21T06:16:59.678Z,22.57
2018-09-21T06:17:34.924Z,22.56
2018-09-21T06:18:10.321Z,22.61
2018-09-21T06:18:45.758Z,22.59
2018-09-21T06:19:21.311Z,22.46
2018-09-21T06:19:56.665Z,22.59
2018-09-21T06:20:32.007Z,22.66
2018-09-21T06:21:07.683Z,22.67
2018-09-21T06:21:42.991Z,22.62
2018-09-21T06:22:18.421Z,22.71
2018-09-21T06:22:53.947Z,22.71
2018-09-21T06:23:29.358Z,22.77
2018-09-21T06:24:05.236Z,22.82
2018-09-21T06:24:40.459Z,22.78
2018-09-21T06:25:15.748Z,22.80
2018-09-21T06:25:51.049Z,22.72
2018-09-21T06:26:26.322Z,22.74
2018-09-21T06:27:01.506Z,22.71
2018-09-21T06:27:36.683Z,22.75
2018-09-21T06:28:11.854Z,22.86
2018-09-21T06:28:47.134Z,22.89
2018-09-21T06:29:22.541Z,22.90
2018-09-21T06:29:57.879Z,22.89
2018-09-21T06:30:33.050Z,22.92
2018-09-21T06:31:08.266Z,22.91
2018-09-21T06:31:43.722Z,22.94
2018-09-21T06:32:19.019Z,22.92
2018-09-21T06:32:54.694Z,22.96
2018-09-21T06:33:30.015Z,22.97
2018-09-21T06:34:05.191Z,22.95
2018-09-21T06:34:40.534Z,22.92
2018-09-21T06:35:15.771Z,23.01
2018-09-21T06:35:51.205Z,23.00
2018-09-21T06:36:26.759Z,23.03
2018-09-21T06:37:01.953Z,23.04
2018-09-21T06:37:37.117Z,23.05
2018-09-21T06:38:12.307Z,23.03
2018-09-21T06:38:47.748Z,23.01
2018-09-21T06:39:23.142Z,23.00
2018-09-21T06:39:59.298Z,22.96
2018-09-21T06:40:34.531Z,22.97
2018-09-21T06:41:09.795Z,22.99
2018-09-21T06:41:45.192Z,23.01
2018-09-21T06:42:20.478Z,23.00
2018-09-21T06:42:55.839Z,23.05
2018-09-21T06:43:31.115Z,23.12
2018-09-21T06:44:07.011Z,23.10
2018-09-21T06:44:42.591Z,23.17
2018-09-21T06:45:18.725Z,23.16
2018-09-21T06:45:54.362Z,23.13
2018-09-21T06:46:29.563Z,23.12
2018-09-21T06:47:05.118Z,23.18
2018-09-21T06:47:40.317Z,23.21
2018-09-21T06:48:15.577Z,23.21
2018-09-21T06:48:51.232Z,23.21
2018-09-21T06:49:27.007Z,23.23
2018-09-21T06:50:02.412Z,23.16
2018-09-21T06:50:37.612Z,23.11
2018-09-21T06:51:13.195Z,23.16
2018-09-21T06:51:48.465Z,23.16
2018-09-21T06:52:23.780Z,23.15
2018-09-21T06:52:59.001Z,23.18
2018-09-21T06:53:33.681Z,23.10
2018-09-21T06:54:08.402Z,23.12
2018-09-21T06:54:43.685Z,23.15
2018-09-21T06:55:18.615Z,23.13
2018-09-21T06:55:54.327Z,23.13
2018-09-21T06:56:29.666Z,23.18
2018-09-21T06:57:04.860Z,23.10
2018-09-21T06:57:40.065Z,23.01
2018-09-21T06:58:15.264Z,23.07
2018-09-21T06:58:50.721Z,23.07
2018-09-21T06:59:26.033Z,23.05
2018-09-21T07:00:01.279Z,23.03
2018-09-21T07:00:36.847Z,23.04
2018-09-21T07:01:12.039Z,23.08
2018-09-21T07:01:47.343Z,23.13
2018-09-21T07:02:22.846Z,23.12
2018-09-21T07:02:58.302Z,23.17
2018-09-21T07:03:33.584Z,23.17
2018-09-21T07:04:08.317Z,23.11
2018-09-21T07:04:43.492Z,23.03
2018-09-21T07:05:19.527Z,23.04
2018-09-21T07:05:54.915Z,23.13
2018-09-21T07:06:30.246Z,23.12
2018-09-21T07:07:05.471Z,23.08
2018-09-21T07:07:40.658Z,23.13
2018-09-21T07:08:15.898Z,23.19
2018-09-21T07:08:51.318Z,23.15
2018-09-21T07:09:26.617Z,23.20
2018-09-21T07:10:01.923Z,23.17
2018-09-21T07:10:37.239Z,23.19
2018-09-21T07:11:12.406Z,23.20
2018-09-21T07:11:47.752Z,23.18
2018-09-21T07:12:22.974Z,23.26
2018-09-21T07:12:58.281Z,23.28
2018-09-21T07:13:33.492Z,23.14
2018-09-21T07:14:08.862Z,23.06
2018-09-21T07:14:44.073Z,23.15
2018-09-21T07:15:19.407Z,23.14
2018-09-21T07:15:54.937Z,23.22
2018-09-21T07:16:30.362Z,23.23
2018-09-21T07:17:05.547Z,23.20
2018-09-21T07:17:41.756Z,23.25
2018-09-21T07:18:16.952Z,23.23
2018-09-21T07:18:52.323Z,23.24
2018-09-21T07:19:27.587Z,23.28
2018-09-21T07:20:02.997Z,23.35
2018-09-21T07:20:38.193Z,23.31
2018-09-21T07:21:13.382Z,23.25
2018-09-21T07:21:48.746Z,23.34
2018-09-21T07:22:24.020Z,23.37
2018-09-21T07:22:59.335Z,23.33
2018-09-21T07:23:34.743Z,23.34
2018-09-21T07:24:09.784Z,23.35
2018-09-21T07:24:45.192Z,23.27
2018-09-21T07:25:20.436Z,23.23
2018-09-21T07:25:55.789Z,23.25
2018-09-21T07:26:31.031Z,23.23
2018-09-21T07:27:06.207Z,23.19
2018-09-21T07:27:41.405Z,23.17
2018-09-21T07:28:16.636Z,23.18
2018-09-21T07:28:51.967Z,23.11
2018-09-21T07:29:27.267Z,23.10
2018-09-21T07:30:02.512Z,23.07
2018-09-21T07:30:37.706Z,23.09
2018-09-21T07:31:12.937Z,23.03
2018-09-21T07:31:48.470Z,22.99
2018-09-21T07:32:24.036Z,22.87
2018-09-21T07:32:59.406Z,22.86
2018-09-21T07:33:34.670Z,22.84
2018-09-21T07:34:09.859Z,22.92
2018-09-21T07:34:45.051Z,22.89